createdAt,value
2019-05-10T00:01:04.252Z,10.52
2019-05-10T00:03:52.794Z,10.46
2019-05-10T00:06:41.541Z,10.43
2019-05-10T00:09:11.443Z,10.40
2019-05-10T00:11:43.798Z,10.38
2019-05-10T00:14:32.332Z,10.42
2019-05-10T00:17:04.747Z,10.44
2019-05-10T00:19:35.376Z,10.43
2019-05-10T00:22:05.803Z,10.44
2019-05-10T00:24:36.170Z,10.43
2019-05-10T00:27:06.613Z,10.42
2019-05-10T00:29:37.245Z,10.41
2019-05-10T00:32:07.870Z,10.41
2019-05-10T00:34:41.423Z,10.39
2019-05-10T00:37:12.891Z,10.40
2019-05-10T00:39:43.358Z,10.44
2019-05-10T00:42:14.913Z,10.50
2019-05-10T00:44:45.436Z,10.48
2019-05-10T00:47:16.943Z,10.45
2019-05-10T00:49:47.415Z,10.43
2019-05-10T00:52:17.688Z,10.43
2019-05-10T00:54:48.274Z,10.42
2019-05-10T00:57:18.900Z,10.39
2019-05-10T00:59:49.471Z,10.34
2019-05-10T01:02:20.135Z,10.30
2019-05-10T01:04:50.522Z,10.26
2019-05-10T01:07:21.650Z,10.22
2019-05-10T01:09:52.259Z,10.16
2019-05-10T01:12:22.604Z,10.12
2019-05-10T01:14:53.323Z,10.09
2019-05-10T01:17:23.978Z,10.04
2019-05-10T01:19:54.627Z,9.96
2019-05-10T01:22:25.111Z,9.94
2019-05-10T01:24:55.789Z,9.92
2019-05-10T01:27:26.476Z,9.91
2019-05-10T01:29:57.101Z,9.91
2019-05-10T01:32:27.986Z,10.04
2019-05-10T01:34:58.468Z,10.03
2019-05-10T01:37:29.144Z,9.92
2019-05-10T01:39:59.740Z,9.83
2019-05-10T01:42:30.612Z,9.79
2019-05-10T01:45:01.037Z,9.87
2019-05-10T01:47:31.359Z,9.79
2019-05-10T01:50:02.098Z,9.73
2019-05-10T01:52:32.887Z,9.74
2019-05-10T01:55:04.202Z,9.74
2019-05-10T01:57:35.071Z,9.59
2019-05-10T02:00:06.370Z,9.68
2019-05-10T02:02:37.269Z,9.61
2019-05-10T02:05:08.095Z,9.63
2019-05-10T02:07:38.889Z,9.46
2019-05-10T02:10:09.708Z,9.34
2019-05-10T02:12:40.086Z,9.48
2019-05-10T02:15:10.512Z,9.44
2019-05-10T02:17:41.358Z,9.37
2019-05-10T02:20:11.925Z,9.29
2019-05-10T02:22:42.609Z,9.39
2019-05-10T02:25:14.382Z,9.47
2019-05-10T02:27:45.208Z,9.45
2019-05-10T02:30:15.652Z,9.34
2019-05-10T02:32:46.781Z,9.32
2019-05-10T02:35:17.253Z,9.30
2019-05-10T02:37:48.284Z,9.19
2019-05-10T02:40:18.858Z,9.14
2019-05-10T02:42:49.649Z,9.14
2019-05-10T02:45:20.463Z,9.11
2019-05-10T02:47:50.973Z,9.19
2019-05-10T02:50:21.704Z,9.19
2019-05-10T02:52:52.134Z,9.25
2019-05-10T02:55:22.908Z,9.26
2019-05-10T02:57:53.602Z,9.37
2019-05-10T03:00:24.510Z,9.44
2019-05-10T03:02:55.682Z,9.59
2019-05-10T03:05:27.219Z,9.66
2019-05-10T03:07:58.238Z,9.71
2019-05-10T03:10:30.652Z,9.70
2019-05-10T03:13:02.571Z,9.67
2019-05-10T03:15:36.277Z,9.51
2019-05-10T03:18:06.662Z,9.42
2019-05-10T03:20:38.015Z,9.37
2019-05-10T03:23:09.304Z,9.54
2019-05-10T03:25:39.545Z,9.48
2019-05-10T03:28:10.288Z,9.43
2019-05-10T03:30:41.034Z,9.37
2019-05-10T03:33:12.010Z,9.44
2019-05-10T03:35:42.533Z,9.39
2019-05-10T03:38:13.332Z,9.38
2019-05-10T03:40:43.992Z,9.42
2019-05-10T03:43:14.793Z,9.47
2019-05-10T03:45:45.455Z,9.51
2019-05-10T03:48:17.990Z,9.49
2019-05-10T03:50:48.731Z,9.64
2019-05-10T03:53:19.306Z,9.69
2019-05-10T03:55:51.375Z,9.78
2019-05-10T03:58:23.825Z,9.77
2019-05-10T04:00:54.546Z,9.79
2019-05-10T04:03:28.144Z,9.96
2019-05-10T04:05:59.529Z,10.03
2019-05-10T04:08:30.265Z,10.09
2019-05-10T04:11:00.921Z,10.06
2019-05-10T04:13:31.584Z,10.14
2019-05-10T04:16:02.254Z,10.16
2019-05-10T04:18:32.704Z,10.15
2019-05-10T04:21:03.424Z,10.12
2019-05-10T04:23:34.109Z,10.17
2019-05-10T04:26:04.711Z,10.17
2019-05-10T04:28:40.471Z,10.25
2019-05-10T04:31:11.236Z,10.35
2019-05-10T04:33:41.757Z,10.61
2019-05-10T04:36:13.103Z,10.64
2019-05-10T04:38:43.622Z,10.79
2019-05-10T04:41:14.319Z,10.83
2019-05-10T04:43:44.992Z,10.93
2019-05-10T04:46:15.773Z,10.79
2019-05-10T04:48:45.962Z,10.70
2019-05-10T04:51:16.580Z,10.70
2019-05-10T04:53:47.112Z,11.04
2019-05-10T04:56:19.439Z,11.23
2019-05-10T04:58:49.785Z,11.24
2019-05-10T05:01:20.352Z,11.16
2019-05-10T05:03:50.980Z,11.21
2019-05-10T05:06:21.711Z,11.28
2019-05-10T05:08:51.965Z,11.57
2019-05-10T05:11:22.325Z,11.78
2019-05-10T05:13:52.942Z,12.18
2019-05-10T05:16:23.448Z,12.42
2019-05-10T05:18:54.011Z,12.78
2019-05-10T05:21:24.583Z,13.07
2019-05-10T05:23:55.166Z,13.28
2019-05-10T05:26:26.660Z,13.92
2019-05-10T05:28:57.076Z,14.09
2019-05-10T05:31:27.610Z,13.98
2019-05-10T05:33:59.176Z,14.14
2019-05-10T05:36:30.344Z,14.73
2019-05-10T05:39:00.691Z,15.25
2019-05-10T05:41:47.802Z,14.85
2019-05-10T05:44:11.612Z,15.22
2019-05-10T05:46:41.936Z,15.28
2019-05-10T05:49:12.466Z,15.52
2019-05-10T05:51:55.966Z,15.81
2019-05-10T05:54:26.327Z,15.67
2019-05-10T05:56:56.976Z,15.60
2019-05-10T05:59:27.533Z,15.43
2019-05-10T06:02:00.876Z,15.89
2019-05-10T06:04:30.430Z,16.66
2019-05-10T06:07:00.905Z,16.95
2019-05-10T06:09:31.973Z,17.17
2019-05-10T06:12:07.383Z,17.23
2019-05-10T06:14:42.980Z,17.66
2019-05-10T06:17:09.319Z,18.03
2019-05-10T06:19:39.903Z,18.45
2019-05-10T06:22:10.749Z,18.45
2019-05-10T06:24:41.068Z,18.62
2019-05-10T06:27:11.905Z,18.95
2019-05-10T06:29:43.217Z,19.28
2019-05-10T06:32:14.031Z,20.16
2019-05-10T06:34:44.207Z,20.74
2019-05-10T06:37:14.984Z,22.30
2019-05-10T06:39:45.570Z,21.20
2019-05-10T06:42:15.878Z,21.02
2019-05-10T06:44:47.637Z,20.48
2019-05-10T06:47:21.519Z,19.40
2019-05-10T06:49:52.301Z,18.09
2019-05-10T06:52:27.756Z,17.75
2019-05-10T06:54:58.525Z,17.13
2019-05-10T06:57:27.172Z,17.26
2019-05-10T07:00:06.190Z,18.08
2019-05-10T07:02:32.511Z,17.57
2019-05-10T07:05:02.579Z,16.52
2019-05-10T07:07:43.694Z,15.92
2019-05-10T07:10:17.631Z,16.49
2019-05-10T07:12:38.951Z,16.74
2019-05-10T07:15:09.513Z,16.77
2019-05-10T07:17:43.630Z,16.22
2019-05-10T07:20:12.060Z,16.30
2019-05-10T07:22:42.257Z,16.23
2019-05-10T07:25:12.910Z,16.15
2019-05-10T07:27:44.277Z,15.82
2019-05-10T07:30:16.594Z,15.07
2019-05-10T07:32:49.155Z,14.76
2019-05-10T07:35:20.156Z,14.45
2019-05-10T07:37:51.903Z,14.17
2019-05-10T07:40:22.889Z,13.96
2019-05-10T07:42:53.358Z,13.69
2019-05-10T07:45:25.511Z,13.38
2019-05-10T07:47:56.174Z,13.22
2019-05-10T07:50:26.710Z,13.17
2019-05-10T07:52:58.131Z,12.94
2019-05-10T07:55:30.149Z,12.90
2019-05-10T07:58:04.939Z,12.82
2019-05-10T08:00:38.057Z,12.81
2019-05-10T08:03:15.803Z,12.94
2019-05-10T08:05:39.286Z,13.11
2019-05-10T08:08:12.074Z,13.35
2019-05-10T08:10:44.136Z,13.55
2019-05-10T08:13:15.332Z,13.69
2019-05-10T08:15:48.926Z,13.93
2019-05-10T08:18:21.176Z,14.06
2019-05-10T08:20:58.175Z,14.35
2019-05-10T08:23:27.787Z,14.37
2019-05-10T08:25:56.982Z,14.75
2019-05-10T08:28:27.839Z,15.18
2019-05-10T08:31:02.492Z,15.43
2019-05-10T08:33:32.791Z,16.12
2019-05-10T08:36:05.510Z,16.13
2019-05-10T08:38:39.710Z,15.62
2019-05-10T08:41:13.227Z,15.89
2019-05-10T08:43:42.838Z,16.93
2019-05-10T08:46:12.225Z,16.94
2019-05-10T08:48:50.177Z,17.10
2019-05-10T08:51:15.689Z,17.53
2019-05-10T08:53:51.849Z,19.27
2019-05-10T08:56:23.419Z,21.13
2019-05-10T08:58:53.340Z,21.05
2019-05-10T09:01:29.668Z,20.83
2019-05-10T09:04:00.782Z,19.87
2019-05-10T09:06:32.557Z,20.26
2019-05-10T09:09:02.009Z,20.50
2019-05-10T09:11:33.177Z,21.16
2019-05-10T09:14:12.319Z,21.53
2019-05-10T09:16:46.207Z,22.73
2019-05-10T09:19:12.493Z,22.94
2019-05-10T09:21:49.848Z,21.88
2019-05-10T09:24:26.164Z,21.15
2019-05-10T09:26:57.311Z,21.38
2019-05-10T09:29:35.228Z,21.97
2019-05-10T09:32:04.051Z,21.54
2019-05-10T09:34:34.015Z,22.02
2019-05-10T09:37:08.016Z,22.57
2019-05-10T09:39:37.178Z,23.28
2019-05-10T09:42:10.920Z,22.70
2019-05-10T09:44:45.582Z,23.16
2019-05-10T09:47:14.701Z,22.13
2019-05-10T09:49:55.788Z,21.40
2019-05-10T09:52:19.064Z,22.04
2019-05-10T09:54:52.603Z,22.78
2019-05-10T09:57:23.307Z,22.31
2019-05-10T09:59:57.112Z,22.08
2019-05-10T10:02:33.467Z,22.06
2019-05-10T10:04:59.259Z,22.25
2019-05-10T10:07:33.547Z,21.78
2019-05-10T10:10:02.073Z,21.69
2019-05-10T10:12:34.372Z,20.69
2019-05-10T10:15:09.353Z,21.70
2019-05-10T10:17:42.120Z,22.29
2019-05-10T10:20:11.925Z,23.74
2019-05-10T10:22:43.444Z,24.16
2019-05-10T10:25:17.558Z,23.98
2019-05-10T10:27:48.024Z,23.68
2019-05-10T10:30:21.514Z,23.36
2019-05-10T10:32:51.904Z,23.29
2019-05-10T10:35:26.959Z,23.69
2019-05-10T10:38:05.227Z,24.21
2019-05-10T10:40:44.538Z,25.06
2019-05-10T10:43:12.121Z,25.54
2019-05-10T10:45:43.810Z,25.01
2019-05-10T10:48:17.815Z,23.47
2019-05-10T10:50:53.908Z,23.10
2019-05-10T10:53:21.404Z,23.58
2019-05-10T10:55:54.354Z,23.74
2019-05-10T10:58:24.511Z,23.67
2019-05-10T11:00:56.406Z,23.73
2019-05-10T11:03:30.204Z,23.26
2019-05-10T11:05:59.414Z,22.47
2019-05-10T11:08:32.876Z,23.23
2019-05-10T11:11:02.592Z,23.07
2019-05-10T11:13:43.959Z,22.59
2019-05-10T11:16:10.795Z,22.55
2019-05-10T11:18:41.837Z,22.60
2019-05-10T11:21:12.510Z,22.46
2019-05-10T11:23:44.681Z,22.23
2019-05-10T11:26:16.735Z,23.02
2019-05-10T11:28:47.334Z,22.47
2019-05-10T11:31:21.261Z,21.65
2019-05-10T11:33:58.234Z,22.37
2019-05-10T11:36:24.763Z,22.05
2019-05-10T11:38:58.429Z,22.44
2019-05-10T11:41:27.369Z,22.64
2019-05-10T11:44:05.620Z,23.82
2019-05-10T11:46:32.205Z,23.56
2019-05-10T11:49:02.819Z,22.52
2019-05-10T11:51:33.610Z,22.03
2019-05-10T11:54:04.139Z,20.82
2019-05-10T11:56:34.549Z,20.55
2019-05-10T11:59:05.826Z,21.11
2019-05-10T12:01:41.450Z,22.37
2019-05-10T12:04:13.172Z,22.43
2019-05-10T12:06:50.057Z,20.96
2019-05-10T12:09:13.635Z,20.67
2019-05-10T12:14:16.423Z,20.44
2019-05-10T12:16:48.770Z,20.84
2019-05-10T12:19:21.263Z,21.59
2019-05-10T12:21:56.112Z,21.59
2019-05-10T12:24:45.175Z,20.77
2019-05-10T12:26:15.807Z,20.33
2019-05-10T12:27:22.518Z,20.17
2019-05-10T12:29:31.649Z,20.61
2019-05-10T12:32:03.884Z,20.26
2019-05-10T12:34:34.684Z,18.84
2019-05-10T12:37:10.289Z,18.68
2019-05-10T12:39:41.573Z,19.11
2019-05-10T12:42:14.336Z,20.08
2019-05-10T12:44:47.993Z,20.55
2019-05-10T12:47:18.519Z,20.36
2019-05-10T12:49:53.849Z,20.61
2019-05-10T12:52:28.462Z,20.60
2019-05-10T12:54:55.990Z,20.84
2019-05-10T12:57:28.631Z,20.92
2019-05-10T13:00:12.896Z,20.83
2019-05-10T13:02:51.085Z,21.46
2019-05-10T13:05:30.793Z,22.42
2019-05-10T13:08:06.301Z,22.61
2019-05-10T13:10:37.124Z,22.11
2019-05-10T13:13:10.258Z,21.81
2019-05-10T13:15:40.821Z,22.19
2019-05-10T13:18:11.673Z,22.48
2019-05-10T13:20:47.629Z,22.22
2019-05-10T13:23:18.555Z,21.85
2019-05-10T13:25:49.075Z,21.88
2019-05-10T13:28:19.699Z,21.72
2019-05-10T13:30:53.778Z,21.31
2019-05-10T13:33:29.162Z,21.79
2019-05-10T13:36:01.049Z,21.91
2019-05-10T13:38:36.755Z,21.65
2019-05-10T13:41:07.278Z,21.66
2019-05-10T13:43:37.458Z,21.61
2019-05-10T13:46:08.137Z,21.52
2019-05-10T13:48:38.808Z,20.96
2019-05-10T13:51:09.241Z,20.96
2019-05-10T13:53:39.717Z,21.41
2019-05-10T13:56:10.351Z,21.30
2019-05-10T13:58:41.201Z,21.72
2019-05-10T14:01:13.013Z,21.75
2019-05-10T14:03:48.737Z,21.79
2019-05-10T14:06:16.995Z,21.34
2019-05-10T14:08:50.457Z,21.07
2019-05-10T14:11:19.734Z,21.14
2019-05-10T14:13:51.577Z,21.33
2019-05-10T14:16:22.667Z,21.43
2019-05-10T14:18:54.393Z,21.51
2019-05-10T14:21:24.977Z,21.54
2019-05-10T14:23:57.021Z,21.53
2019-05-10T14:26:27.907Z,21.69
2019-05-10T14:28:58.407Z,21.19
2019-05-10T14:31:29.326Z,20.36
2019-05-10T14:34:14.791Z,19.86
2019-05-10T14:36:34.283Z,19.76
2019-05-10T14:39:06.550Z,19.32
2019-05-10T14:41:39.777Z,19.36
2019-05-10T14:44:08.661Z,19.28
2019-05-10T14:46:39.171Z,19.24
2019-05-10T14:49:11.579Z,19.23
2019-05-10T14:51:57.731Z,19.56
2019-05-10T14:54:15.979Z,19.69
2019-05-10T14:56:46.396Z,19.69
2019-05-10T14:59:18.179Z,19.99
2019-05-10T15:01:48.863Z,19.84
2019-05-10T15:04:43.918Z,19.78
2019-05-10T15:06:52.505Z,19.94
2019-05-10T15:09:24.550Z,19.85
2019-05-10T15:11:55.246Z,19.78
2019-05-10T15:14:25.742Z,19.82
2019-05-10T15:16:56.357Z,19.71
2019-05-10T15:19:31.203Z,19.46
2019-05-10T15:22:00.188Z,19.24
2019-05-10T15:24:30.831Z,19.12
2019-05-10T15:27:01.217Z,19.13
2019-05-10T15:29:31.982Z,19.20
2019-05-10T15:32:02.753Z,19.07
2019-05-10T15:34:33.199Z,18.99
2019-05-10T15:37:09.222Z,18.83
2019-05-10T15:39:36.445Z,18.74
2019-05-10T15:42:08.948Z,18.77
2019-05-10T15:44:39.647Z,18.71
2019-05-10T15:47:14.684Z,18.61
2019-05-10T15:49:44.431Z,18.64
2019-05-10T15:52:17.832Z,18.39
2019-05-10T15:54:49.359Z,18.36
2019-05-10T15:57:21.696Z,18.00
2019-05-10T15:59:56.928Z,17.84
2019-05-10T16:02:30.194Z,17.59
2019-05-10T16:05:00.727Z,17.32
2019-05-10T16:07:31.286Z,17.10
2019-05-10T16:10:01.951Z,17.08
2019-05-10T16:12:32.481Z,17.06
2019-05-10T16:15:13.481Z,17.03
2019-05-10T16:17:41.158Z,16.81
2019-05-10T16:20:12.648Z,16.58
2019-05-10T16:22:43.003Z,16.57
2019-05-10T16:25:13.515Z,16.58
2019-05-10T16:27:48.072Z,16.62
2019-05-10T16:30:20.777Z,16.51
2019-05-10T16:32:52.377Z,16.32
2019-05-10T16:35:31.281Z,16.10
2019-05-10T16:37:55.229Z,16.11
2019-05-10T16:40:30.434Z,16.07
2019-05-10T16:43:01.385Z,15.96
2019-05-10T16:45:32.026Z,15.94
2019-05-10T16:48:05.575Z,15.86
2019-05-10T16:50:34.965Z,15.79
2019-05-10T16:53:07.963Z,15.64
2019-05-10T16:55:41.053Z,15.50
2019-05-10T16:58:15.158Z,15.41
2019-05-10T17:00:46.126Z,15.41
2019-05-10T17:03:18.219Z,15.32
2019-05-10T17:05:53.587Z,15.28
2019-05-10T17:08:20.572Z,15.04
2019-05-10T17:10:51.056Z,14.85
2019-05-10T17:13:21.870Z,14.75
2019-05-10T17:15:52.150Z,14.66
2019-05-10T17:18:24.209Z,14.53
2019-05-10T17:20:55.125Z,14.54
2019-05-10T17:23:27.571Z,14.56
2019-05-10T17:25:57.949Z,14.59
2019-05-10T17:28:29.577Z,14.47
2019-05-10T17:31:07.836Z,14.38
2019-05-10T17:33:36.640Z,14.34
2019-05-10T17:36:08.839Z,14.32
2019-05-10T17:38:39.512Z,14.32
2019-05-10T17:41:10.055Z,14.20
2019-05-10T17:43:40.573Z,14.23
2019-05-10T17:46:18.891Z,14.08
2019-05-10T17:48:49.370Z,14.07
2019-05-10T17:51:19.022Z,14.06
2019-05-10T17:53:55.056Z,14.13
2019-05-10T17:56:21.715Z,14.09
2019-05-10T17:58:54.696Z,14.02
2019-05-10T18:01:25.570Z,14.13
2019-05-10T18:03:57.533Z,14.12
2019-05-10T18:06:28.267Z,14.15
2019-05-10T18:09:00.153Z,14.18
2019-05-10T18:11:36.965Z,14.16
2019-05-10T18:14:12.432Z,14.18
2019-05-10T18:16:48.212Z,14.18
2019-05-10T18:19:19.161Z,14.24
2019-05-10T18:21:48.182Z,14.28
2019-05-10T18:24:23.603Z,14.27
2019-05-10T18:26:56.439Z,14.27
2019-05-10T18:29:26.687Z,14.23
2019-05-10T18:31:58.524Z,14.21
2019-05-10T18:34:33.114Z,14.18
2019-05-10T18:37:04.830Z,14.18
2019-05-10T18:39:35.253Z,14.18
2019-05-10T18:42:08.255Z,14.28
2019-05-10T18:44:38.940Z,14.37
2019-05-10T18:47:09.921Z,14.21
2019-05-10T18:49:44.035Z,14.23
2019-05-10T18:52:14.610Z,14.25
2019-05-10T18:54:46.209Z,14.19
2019-05-10T18:57:19.217Z,13.98
2019-05-10T18:59:51.875Z,13.86
2019-05-10T19:02:23.737Z,13.81
2019-05-10T19:04:54.342Z,13.78
2019-05-10T19:07:29.785Z,13.80
2019-05-10T19:10:00.138Z,13.74
2019-05-10T19:12:35.000Z,13.70
2019-05-10T19:15:09.134Z,13.63
2019-05-10T19:17:45.467Z,13.61
2019-05-10T19:20:16.457Z,13.84
2019-05-10T19:22:46.197Z,13.74
2019-05-10T19:25:16.725Z,13.60
2019-05-10T19:27:50.767Z,13.54
2019-05-10T19:30:22.393Z,13.51
2019-05-10T19:32:56.439Z,13.46
2019-05-10T19:35:24.051Z,13.34
2019-05-10T19:37:54.642Z,13.29
2019-05-10T19:40:25.320Z,13.12
2019-05-10T19:42:56.637Z,12.99
2019-05-10T19:45:30.785Z,12.90
2019-05-10T19:48:01.420Z,12.79
2019-05-10T19:50:33.188Z,12.82
2019-05-10T19:53:05.485Z,12.92
2019-05-10T19:55:35.974Z,13.00
2019-05-10T19:58:06.817Z,12.80
2019-05-10T20:00:39.191Z,12.72
2019-05-10T20:03:10.882Z,12.85
2019-05-10T20:05:41.536Z,12.85
2019-05-10T20:08:12.416Z,12.74
2019-05-10T20:10:43.227Z,12.59
2019-05-10T20:13:17.647Z,12.43
2019-05-10T20:15:48.261Z,12.34
2019-05-10T20:18:20.770Z,12.39
2019-05-10T20:20:51.074Z,12.59
2019-05-10T20:23:23.688Z,12.75
2019-05-10T20:25:54.301Z,12.74
2019-05-10T20:28:25.171Z,12.80
2019-05-10T20:30:56.077Z,12.72
2019-05-10T20:33:26.460Z,12.84
2019-05-10T20:35:57.099Z,12.78
2019-05-10T20:38:30.248Z,12.68
2019-05-10T20:41:07.312Z,12.61
2019-05-10T20:43:37.645Z,12.68
2019-05-10T20:46:11.228Z,12.75
2019-05-10T20:48:42.242Z,12.80
2019-05-10T20:51:12.914Z,12.81
2019-05-10T20:53:43.232Z,12.69
2019-05-10T20:56:13.622Z,12.65
2019-05-10T20:58:44.141Z,12.53
2019-05-10T21:01:16.364Z,12.42
2019-05-10T21:03:46.946Z,12.35
2019-05-10T21:06:17.475Z,12.30
2019-05-10T21:08:48.219Z,12.25
2019-05-10T21:11:20.466Z,12.21
2019-05-10T21:13:51.184Z,12.19
2019-05-10T21:16:21.753Z,12.21
2019-05-10T21:18:52.363Z,12.13
2019-05-10T21:21:23.012Z,12.14
2019-05-10T21:23:53.530Z,12.09
2019-05-10T21:26:24.050Z,12.04
2019-05-10T21:28:54.580Z,12.02
2019-05-10T21:31:25.257Z,11.99
2019-05-10T21:34:08.659Z,12.00
2019-05-10T21:36:28.021Z,11.88
2019-05-10T21:38:58.746Z,11.98
2019-05-10T21:41:29.374Z,11.97
2019-05-10T21:44:00.161Z,12.00
2019-05-10T21:46:30.402Z,12.03
2019-05-10T21:49:00.968Z,12.09
2019-05-10T21:51:31.475Z,12.05
2019-05-10T21:54:02.119Z,11.96
2019-05-10T21:56:35.517Z,11.98
2019-05-10T21:59:04.619Z,11.94
2019-05-10T22:01:35.249Z,11.99
2019-05-10T22:04:07.253Z,11.99
2019-05-10T22:06:37.926Z,12.02
2019-05-10T22:09:10.312Z,12.06
2019-05-10T22:11:41.771Z,11.95
2019-05-10T22:14:12.236Z,11.91
2019-05-10T22:16:42.616Z,11.90
2019-05-10T22:19:13.291Z,11.89
2019-05-10T22:21:43.844Z,11.75
2019-05-10T22:24:14.346Z,11.66
2019-05-10T22:26:44.835Z,11.62
2019-05-10T22:29:15.375Z,11.58
2019-05-10T22:31:45.790Z,11.57
2019-05-10T22:34:16.468Z,11.53
2019-05-10T22:36:46.837Z,11.66
2019-05-10T22:39:17.377Z,11.71
2019-05-10T22:41:47.814Z,11.81
2019-05-10T22:44:19.456Z,11.86
2019-05-10T22:46:49.974Z,11.84
2019-05-10T22:49:20.516Z,11.82
2019-05-10T22:51:51.068Z,11.74
2019-05-10T22:54:21.687Z,11.77
2019-05-10T22:56:53.540Z,11.65
2019-05-10T22:59:24.268Z,11.61
2019-05-10T23:01:55.443Z,11.63
2019-05-10T23:04:26.586Z,11.62
2019-05-10T23:06:57.202Z,11.56
2019-05-10T23:09:27.868Z,11.55
2019-05-10T23:11:58.141Z,11.51
2019-05-10T23:14:28.609Z,11.47
2019-05-10T23:16:58.911Z,11.52
2019-05-10T23:19:29.430Z,11.52
2019-05-10T23:21:59.952Z,11.50
2019-05-10T23:24:38.393Z,11.48
2019-05-10T23:27:08.943Z,11.54
2019-05-10T23:29:39.307Z,11.52
2019-05-10T23:32:09.921Z,11.39
2019-05-10T23:34:40.291Z,11.37
2019-05-10T23:37:10.715Z,11.33
2019-05-10T23:39:41.600Z,11.34
2019-05-10T23:42:12.087Z,11.39
2019-05-10T23:44:42.586Z,11.42
2019-05-10T23:47:13.272Z,11.39
2019-05-10T23:49:43.850Z,11.39
2019-05-10T23:52:14.313Z,11.42
2019-05-10T23:54:44.822Z,11.48
2019-05-10T23:57:15.486Z,11.53
2019-05-10T23:59:46.269Z,11.46
